Time;durP1;ratioP1;P1;durP2;ratioP2;P2;SDS_P1;SDS_P2;PMS_P1;PMS_P2;Temp;Humidity;BMP_temperature;BMP_pressure;BME280_temperature;BME280_humidity;BME280_pressure;Samples;Min_cycle;Max_cycle;Signal;HPM_P1;HPM_P2
2022/12/22 03:26:22;;;;;;;9.73;5.27;;;;;;;-2.84;nan;-23734.63;5031668;28;20338;-73
2022/12/22 03:28:47;;;;;;;15.77;6.63;;;;;;;-2.84;nan;-23734.47;5032087;28;20178;-72
2022/12/22 03:31:13;;;;;;;5.90;4.27;;;;;;;-3.22;nan;-23723.84;5031758;28;20543;-74
2022/12/22 03:33:38;;;;;;;10.63;6.93;;;;;;;-3.84;nan;-23706.00;5031887;28;20181;-73
2022/12/22 03:36:05;;;;;;;7.13;5.97;;;;;;;-2.90;nan;-23732.91;5033627;28;20184;-73
2022/12/22 03:38:30;;;;;;;14.83;5.53;;;;;;;-2.88;nan;-23733.47;5035106;28;20716;-74
2022/12/22 03:40:56;;;;;;;6.77;6.03;;;;;;;-3.27;nan;-23722.25;5035583;28;20266;-76
2022/12/22 03:49:08;;;;;;;9.87;6.17;;;;;;;-2.79;nan;-23736.06;5035040;28;20519;-75
2022/12/22 03:51:45;;;;;;;11.33;5.97;;;;;;;-2.94;nan;-23731.75;5035493;28;20225;-73
2022/12/22 03:54:14;;;;;;;10.13;6.20;;;;;;;-3.07;nan;-23728.00;5037097;28;20672;-74
2022/12/22 03:56:40;;;;;;;10.67;5.70;;;;;;;-3.62;nan;-23712.47;5034983;28;20203;-73
2022/12/22 03:59:06;;;;;;;7.60;6.20;;;;;;;-3.04;nan;-23728.72;5034856;28;20608;-75
2022/12/22 04:01:33;;;;;;;9.10;5.90;;;;;;;-3.35;nan;-23719.97;5034425;28;20553;-75
2022/12/22 04:03:59;;;;;;;7.63;4.97;;;;;;;-3.17;nan;-23725.13;5034461;28;20297;-74
2022/12/22 04:06:24;;;;;;;6.43;4.60;;;;;;;-3.56;nan;-23714.19;5034874;28;20183;-73
2022/12/22 04:08:50;;;;;;;9.43;5.93;;;;;;;-3.28;nan;-23721.97;5034550;28;20174;-75
2022/12/22 04:14:00;;;;;;;3.83;2.93;;;;;;;-3.29;nan;-23721.69;5036669;28;20277;-74
2022/12/22 04:16:26;;;;;;;10.00;6.73;;;;;;;-3.52;nan;-23715.06;5036774;28;20228;-74
2022/12/22 04:18:51;;;;;;;8.10;5.33;;;;;;;-3.27;nan;-23722.41;5035794;28;20220;-74
2022/12/22 04:21:17;;;;;;;5.00;4.00;;;;;;;-3.20;nan;-23724.28;5037162;28;20178;-73
2022/12/22 04:23:42;;;;;;;9.30;4.97;;;;;;;-3.59;nan;-23713.34;5036446;28;20631;-74
2022/12/22 04:26:08;;;;;;;7.43;3.80;;;;;;;-3.50;nan;-23715.63;5036008;28;20273;-73
2022/12/22 04:28:33;;;;;;;10.03;5.00;;;;;;;-3.27;nan;-23722.25;5036480;28;20556;-76
2022/12/22 04:30:59;;;;;;;7.17;4.40;;;;;;;-3.40;nan;-23718.53;5037289;28;20194;-75
2022/12/22 04:33:24;;;;;;;12.27;5.47;;;;;;;-3.54;nan;-23714.50;5035372;28;20656;-74
2022/12/22 04:35:50;;;;;;;11.70;5.13;;;;;;;-3.37;nan;-23719.38;5037272;28;20185;-74
2022/12/22 04:38:15;;;;;;;7.43;4.90;;;;;;;-3.26;nan;-23722.53;5036366;28;20679;-73
2022/12/22 04:40:40;;;;;;;8.40;4.80;;;;;;;-3.71;nan;-23709.88;5038093;28;20236;-75
2022/12/22 04:43:06;;;;;;;8.63;4.93;;;;;;;-3.46;nan;-23716.94;5036269;28;20194;-73
2022/12/22 04:45:32;;;;;;;4.97;4.47;;;;;;;-3.56;nan;-23714.19;5037855;28;20191;-74
2022/12/22 04:47:57;;;;;;;6.80;4.20;;;;;;;-3.62;nan;-23712.47;5034100;28;20187;-73
2022/12/22 04:50:22;;;;;;;11.10;5.60;;;;;;;-3.37;nan;-23719.38;5036147;28;20184;-75
2022/12/22 04:52:48;;;;;;;6.90;4.23;;;;;;;-3.65;nan;-23711.63;5035462;28;20233;-75
2022/12/22 04:55:14;;;;;;;14.77;5.63;;;;;;;-3.54;nan;-23714.63;5036875;28;20551;-74
2022/12/22 04:57:39;;;;;;;12.47;5.13;;;;;;;-3.68;nan;-23710.75;5036825;28;20203;-73
2022/12/22 05:00:06;;;;;;;5.03;4.53;;;;;;;-3.28;nan;-23722.13;5035909;28;20506;-76
2022/12/22 05:02:31;;;;;;;6.53;4.37;;;;;;;-3.67;nan;-23710.91;5036208;28;20242;-74
2022/12/22 05:04:56;;;;;;;9.37;5.67;;;;;;;-3.20;nan;-23724.28;5033856;28;20319;-75
2022/12/22 05:07:22;;;;;;;6.10;4.97;;;;;;;-3.13;nan;-23726.44;5035026;28;20184;-73
2022/12/22 05:09:47;;;;;;;4.33;3.93;;;;;;;-3.58;nan;-23713.63;5035722;28;20177;-74
2022/12/22 05:14:57;;;;;;;4.43;3.77;;;;;;;-3.32;nan;-23720.81;5035784;28;20198;-74
2022/12/22 05:17:23;;;;;;;5.70;4.47;;;;;;;-3.61;nan;-23712.75;5035844;28;20175;-73
2022/12/22 05:19:48;;;;;;;5.00;4.50;;;;;;;-3.26;nan;-23722.69;5033340;28;20212;-73
2022/12/22 05:22:13;;;;;;;8.00;3.60;;;;;;;-3.23;nan;-23723.41;5035136;28;20180;-74
2022/12/22 05:24:39;;;;;;;10.37;5.60;;;;;;;-3.47;nan;-23716.66;5036557;28;20587;-74
2022/12/22 05:27:04;;;;;;;4.30;3.90;;;;;;;-3.31;nan;-23721.09;5033399;28;20648;-74
2022/12/22 05:29:30;;;;;;;5.17;4.33;;;;;;;-3.29;nan;-23721.69;5035176;28;20187;-74
2022/12/22 05:31:55;;;;;;;7.90;5.47;;;;;;;-3.25;nan;-23722.97;5034554;28;20184;-74
2022/12/22 05:34:21;;;;;;;7.37;4.27;;;;;;;-3.20;nan;-23724.28;5033608;28;20272;-74
2022/12/22 05:36:46;;;;;;;8.70;5.63;;;;;;;-3.16;nan;-23725.41;5034757;28;20670;-73
2022/12/22 05:39:12;;;;;;;4.27;3.60;;;;;;;-3.37;nan;-23719.53;5036587;28;20192;-75
2022/12/22 05:41:37;;;;;;;5.13;4.20;;;;;;;-3.60;nan;-23712.91;5034120;28;20183;-76
2022/12/22 05:44:03;;;;;;;9.17;4.30;;;;;;;-3.24;nan;-23723.28;5032420;28;20181;-75
2022/12/22 05:46:28;;;;;;;14.73;5.83;;;;;;;-3.29;nan;-23721.69;5037388;28;20179;-74
2022/12/22 05:48:53;;;;;;;7.07;4.63;;;;;;;-3.42;nan;-23717.94;5032464;28;20659;-74
2022/12/22 05:51:19;;;;;;;4.57;4.10;;;;;;;-3.28;nan;-23722.13;5032596;28;20277;-74
2022/12/22 05:53:44;;;;;;;4.37;3.60;;;;;;;-3.57;nan;-23713.78;5032458;28;20160;-75
2022/12/22 05:56:10;;;;;;;5.03;4.37;;;;;;;-3.15;nan;-23725.84;5032381;28;20176;-73
2022/12/22 05:58:38;;;;;;;10.50;5.67;;;;;;;-3.25;nan;-23722.97;5031393;28;20249;-74
2022/12/22 06:01:04;;;;;;;7.97;5.33;;;;;;;-3.06;nan;-23728.31;5033004;28;20258;-74
2022/12/22 06:03:30;;;;;;;6.80;4.87;;;;;;;-4.39;nan;-23690.31;5031509;28;20253;-75
2022/12/22 06:05:57;;;;;;;8.23;6.00;;;;;;;-3.02;nan;-23729.44;5031653;28;20176;-75
2022/12/22 06:08:23;;;;;;;4.70;4.20;;;;;;;-3.08;nan;-23727.72;5031677;28;20160;-74
2022/12/22 06:10:49;;;;;;;7.77;4.20;;;;;;;-3.00;nan;-23730.03;5030504;28;20188;-76
2022/12/22 06:13:14;;;;;;;5.90;4.20;;;;;;;-2.92;nan;-23732.31;5029914;28;20185;-76
2022/12/22 06:15:39;;;;;;;8.13;5.27;;;;;;;-3.27;nan;-23722.41;5031657;28;20194;-76
2022/12/22 06:18:06;;;;;;;5.53;4.40;;;;;;;-2.64;nan;-23740.09;5031615;28;20192;-75
2022/12/22 06:20:31;;;;;;;9.50;6.03;;;;;;;-2.63;nan;-23740.38;5031480;28;20261;-76
2022/12/22 06:22:57;;;;;;;14.17;4.50;;;;;;;-2.51;nan;-23743.81;5030460;28;20697;-80
2022/12/22 06:25:22;;;;;;;5.43;3.97;;;;;;;-2.51;nan;-23743.81;5029932;28;20180;-74
2022/12/22 06:27:48;;;;;;;7.77;5.70;;;;;;;-2.33;nan;-23749.13;5031926;28;20655;-73
2022/12/22 06:30:14;;;;;;;5.40;4.73;;;;;;;-2.65;nan;-23739.78;5031321;28;20250;-74
2022/12/22 06:32:40;;;;;;;6.30;4.50;;;;;;;-2.61;nan;-23741.09;5030161;28;20170;-74
2022/12/22 06:35:07;;;;;;;5.10;4.13;;;;;;;-2.29;nan;-23750.28;5030131;28;20237;-74
2022/12/22 06:37:33;;;;;;;8.63;5.60;;;;;;;-2.45;nan;-23745.69;5030130;28;20170;-74
2022/12/22 06:39:58;;;;;;;7.03;4.30;;;;;;;-1.96;nan;-23759.63;5030358;28;20209;-73
2022/12/22 06:45:08;;;;;;;10.10;4.93;;;;;;;-1.87;nan;-23762.19;5030800;28;20205;-73
2022/12/22 06:47:33;;;;;;;7.03;4.50;;;;;;;-2.14;nan;-23754.44;5032141;28;20556;-74
2022/12/22 06:49:59;;;;;;;13.47;6.90;;;;;;;-1.63;nan;-23768.81;5031797;28;20263;-73
2022/12/22 06:52:24;;;;;;;19.13;8.93;;;;;;;-1.91;nan;-23760.91;5031532;28;20179;-74
2022/12/22 06:54:50;;;;;;;9.77;7.07;;;;;;;-1.83;nan;-23763.34;5030148;28;20639;-74
2022/12/22 06:57:15;;;;;;;10.80;7.10;;;;;;;-1.43;nan;-23774.69;5031594;28;20607;-73
2022/12/22 06:59:41;;;;;;;8.47;6.53;;;;;;;-1.44;nan;-23774.25;5031820;28;20199;-73
2022/12/22 07:02:08;;;;;;;10.90;6.80;;;;;;;-1.15;nan;-23782.56;5031459;28;20612;-75
2022/12/22 07:04:33;;;;;;;9.80;6.33;;;;;;;-1.18;nan;-23781.72;5031432;28;20593;-73
2022/12/22 07:06:58;;;;;;;14.40;5.33;;;;;;;-1.45;nan;-23774.13;5031983;28;20214;-73
2022/12/22 07:09:24;;;;;;;8.07;5.27;;;;;;;-1.39;nan;-23775.84;5030408;28;20175;-73
2022/12/22 07:11:49;;;;;;;7.13;5.63;;;;;;;-1.20;nan;-23781.00;5035341;28;20208;-73
2022/12/22 07:14:15;;;;;;;7.07;5.27;;;;;;;-0.91;nan;-23789.31;5036012;28;20175;-74
2022/12/22 07:16:40;;;;;;;11.57;4.60;;;;;;;-0.93;nan;-23788.88;5035318;28;20183;-73
2022/12/22 07:19:06;;;;;;;10.40;4.93;;;;;;;-1.00;nan;-23786.88;5035151;28;20199;-74
2022/12/22 07:21:31;;;;;;;9.57;4.57;;;;;;;-0.60;nan;-23798.06;5033966;28;20176;-73
2022/12/22 07:23:56;;;;;;;9.23;4.73;;;;;;;-0.85;nan;-23790.91;5035758;28;20262;-74
2022/12/22 07:26:22;;;;;;;8.17;5.20;;;;;;;-0.38;nan;-23804.38;5034995;28;20662;-73
2022/12/22 07:28:47;;;;;;;11.33;5.97;;;;;;;-0.78;nan;-23792.91;5034128;28;20184;-73
2022/12/22 07:31:16;;;;;;;18.33;5.17;;;;;;;-0.55;nan;-23799.50;5035534;28;20176;-72
2022/12/22 07:33:41;;;;;;;6.47;3.90;;;;;;;-0.27;nan;-23807.50;5035162;28;20180;-73
2022/12/22 07:36:15;;;;;;;9.50;5.17;;;;;;;-5.71;nan;-23652.84;5035216;28;20174;-72
2022/12/22 07:38:43;;;;;;;5.47;4.87;;;;;;;-0.29;nan;-23806.94;5035194;28;20198;-72
2022/12/22 07:43:57;;;;;;;10.77;6.27;;;;;;;0.20;nan;-23820.69;5035144;28;20545;-75
2022/12/22 07:46:25;;;;;;;7.47;5.63;;;;;;;0.07;nan;-23816.97;5035088;28;20182;-74
2022/12/22 07:51:37;;;;;;;6.07;4.40;;;;;;;-0.08;nan;-23812.97;5035114;28;20536;-73
2022/12/22 07:54:07;;;;;;;4.70;4.13;;;;;;;0.67;nan;-23834.16;5033675;28;20187;-72
2022/12/22 07:56:33;;;;;;;4.30;3.90;;;;;;;0.58;nan;-23831.44;5034272;28;20175;-72
2022/12/22 07:58:58;;;;;;;10.83;6.07;;;;;;;0.44;nan;-23827.56;5034698;28;20578;-73
2022/12/22 08:01:24;;;;;;;19.23;5.57;;;;;;;0.29;nan;-23823.28;5034506;28;20533;-72
2022/12/22 08:03:50;;;;;;;10.83;4.63;;;;;;;0.42;nan;-23827.00;5033762;28;20261;-72
2022/12/22 08:06:15;;;;;;;9.40;5.13;;;;;;;0.44;nan;-23827.72;5034116;28;20257;-75
2022/12/22 08:08:41;;;;;;;6.07;3.87;;;;;;;0.89;nan;-23840.44;5033578;28;20266;-73
2022/12/22 08:11:06;;;;;;;7.00;4.80;;;;;;;0.98;nan;-23842.88;5034930;28;20649;-73
2022/12/22 08:13:33;;;;;;;7.90;5.47;;;;;;;0.86;nan;-23839.59;5034349;28;20585;-74
2022/12/22 08:16:07;;;;;;;4.00;3.57;;;;;;;1.27;nan;-23851.03;5034445;28;20651;-73
2022/12/22 08:18:33;;;;;;;9.97;5.70;;;;;;;1.14;nan;-23847.44;5034359;28;20203;-74
2022/12/22 08:20:59;;;;;;;8.63;5.37;;;;;;;1.14;nan;-23847.31;5032312;28;20189;-72
2022/12/22 08:23:24;;;;;;;11.27;6.33;;;;;;;1.54;nan;-23858.75;5034458;28;20172;-72
2022/12/22 08:25:58;;;;;;;10.20;4.97;;;;;;;1.27;nan;-23851.16;5034120;28;20635;-73
2022/12/22 08:28:23;;;;;;;16.57;5.53;;;;;;;1.46;nan;-23856.31;5034589;28;20203;-71
2022/12/22 08:30:49;;;;;;;13.77;5.40;;;;;;;1.68;nan;-23862.75;5034197;28;20263;-74
2022/12/22 08:33:14;;;;;;;6.93;4.90;;;;;;;1.60;nan;-23860.31;5034300;28;20628;-72
2022/12/22 08:35:41;;;;;;;9.17;5.33;;;;;;;1.69;nan;-23862.88;5034264;28;20206;-73
2022/12/22 08:38:06;;;;;;;9.87;5.33;;;;;;;1.97;nan;-23870.88;5033595;28;20572;-75
2022/12/22 08:40:32;;;;;;;10.70;4.90;;;;;;;2.12;nan;-23875.16;5031610;28;20187;-75
2022/12/22 08:43:03;;;;;;;8.60;4.97;;;;;;;1.87;nan;-23867.88;5033595;28;20285;-74
2022/12/22 08:45:29;;;;;;;7.23;5.00;;;;;;;1.84;nan;-23867.19;5029291;28;20286;-74
2022/12/22 08:47:54;;;;;;;8.17;5.30;;;;;;;2.43;nan;-23883.75;5032262;28;20262;-77
2022/12/22 08:50:20;;;;;;;8.00;4.60;;;;;;;2.21;nan;-23877.75;5030755;28;20275;-74
2022/12/22 08:52:45;;;;;;;11.43;4.50;;;;;;;2.52;nan;-23886.44;5032776;28;20226;-74
2022/12/22 08:55:10;;;;;;;8.40;4.77;;;;;;;2.57;nan;-23887.72;5031356;28;20171;-72
2022/12/22 08:57:36;;;;;;;8.47;5.03;;;;;;;2.83;nan;-23895.00;5032741;28;20181;-73
2022/12/22 09:00:05;;;;;;;8.67;5.10;;;;;;;2.99;nan;-23899.56;5032662;28;20197;-75
2022/12/22 09:02:30;;;;;;;8.07;5.23;;;;;;;3.24;nan;-23906.72;5032752;28;20219;-75
2022/12/22 09:04:56;;;;;;;8.53;5.17;;;;;;;3.21;nan;-23905.72;5032921;28;20662;-74
2022/12/22 09:07:21;;;;;;;6.47;4.77;;;;;;;3.05;nan;-23901.28;5032894;28;20270;-73
2022/12/22 09:09:47;;;;;;;12.37;5.17;;;;;;;3.13;nan;-23903.44;5033089;28;20183;-75
2022/12/22 09:12:12;;;;;;;11.53;5.83;;;;;;;3.04;nan;-23901.00;5032734;28;20184;-75
2022/12/22 09:14:37;;;;;;;9.70;5.13;;;;;;;2.87;nan;-23896.28;5032631;28;20195;-76
2022/12/22 09:17:03;;;;;;;6.37;5.47;;;;;;;3.67;nan;-23918.69;5033037;28;20266;-73
2022/12/22 09:19:28;;;;;;;13.00;5.07;;;;;;;3.70;nan;-23919.69;5031673;28;20237;-75
2022/12/22 09:21:55;;;;;;;10.53;5.53;;;;;;;3.74;nan;-23920.69;5033095;28;20595;-73
2022/12/22 09:24:21;;;;;;;8.07;5.13;;;;;;;3.75;nan;-23920.97;5031447;28;20179;-74
2022/12/22 09:26:46;;;;;;;10.23;6.43;;;;;;;4.04;nan;-23929.09;5032823;28;20517;-75
2022/12/22 09:29:14;;;;;;;13.13;6.87;;;;;;;3.92;nan;-23925.94;5032167;28;20536;-74
2022/12/22 09:31:40;;;;;;;13.57;6.30;;;;;;;3.78;nan;-23921.81;5032534;28;20178;-74
2022/12/22 09:34:06;;;;;;;6.27;5.07;;;;;;;4.28;nan;-23935.91;5031286;28;20658;-74
2022/12/22 09:36:32;;;;;;;13.37;6.27;;;;;;;4.76;nan;-23949.44;5032682;28;20182;-74
2022/12/22 09:38:58;;;;;;;9.73;5.20;;;;;;;4.50;nan;-23942.03;5032102;28;20195;-72
2022/12/22 09:41:50;;;;;;;10.90;5.33;;;;;;;4.56;nan;-23943.88;5032386;28;20182;-74
2022/12/22 09:44:44;;;;;;;6.67;4.93;;;;;;;4.71;nan;-23948.16;5032082;28;20163;-74
2022/12/22 09:47:22;;;;;;;7.33;5.30;;;;;;;4.35;nan;-23937.91;5032046;28;20176;-74
2022/12/22 09:49:49;;;;;;;11.20;5.97;;;;;;;4.52;nan;-23942.75;5031663;28;20198;-76
2022/12/22 09:52:29;;;;;;;12.00;6.53;;;;;;;4.84;nan;-23951.72;5032056;28;20662;-73
2022/12/22 09:54:55;;;;;;;13.13;6.33;;;;;;;4.86;nan;-23952.44;5033734;28;20182;-75
2022/12/22 09:57:25;;;;;;;12.43;5.83;;;;;;;4.56;nan;-23943.88;5031863;28;20714;-74
2022/12/22 09:59:51;;;;;;;14.03;7.70;;;;;;;4.95;nan;-23954.84;5031933;28;20210;-75
2022/12/22 10:02:24;;;;;;;10.00;7.07;;;;;;;5.04;nan;-23957.25;5032874;28;20537;-73
2022/12/22 10:05:27;;;;;;;13.33;6.97;;;;;;;4.92;nan;-23953.84;5060483;28;20569;-74
2022/12/22 10:07:57;;;;;;;9.37;6.90;;;;;;;4.94;nan;-23954.56;5022195;28;20592;-74
2022/12/22 10:10:28;;;;;;;13.30;6.40;;;;;;;5.19;nan;-23961.66;5027555;28;20222;-73
2022/12/22 10:12:56;;;;;;;15.73;7.90;;;;;;;5.22;nan;-23962.53;5029163;28;20182;-74
2022/12/22 10:15:22;;;;;;;11.50;7.70;;;;;;;5.74;nan;-23977.03;5028923;28;20175;-73
2022/12/22 10:17:53;;;;;;;12.93;7.40;;;;;;;5.96;nan;-23983.28;5028873;28;20557;-72
2022/12/22 10:20:21;;;;;;;16.57;7.30;;;;;;;6.03;nan;-23985.13;5027315;28;20275;-73
2022/12/22 10:22:49;;;;;;;12.03;7.43;;;;;;;5.67;nan;-23975.03;5028741;28;20179;-74
2022/12/22 10:25:28;;;;;;;12.30;7.40;;;;;;;6.03;nan;-23985.28;5028612;28;20183;-74
2022/12/22 10:27:57;;;;;;;16.57;8.37;;;;;;;6.07;nan;-23986.25;5028617;28;20171;-72
2022/12/22 10:30:27;;;;;;;17.93;9.20;;;;;;;6.02;nan;-23984.97;5027011;28;20190;-73
2022/12/22 10:33:07;;;;;;;19.93;9.47;;;;;;;6.03;nan;-23985.13;5026740;28;20547;-73
2022/12/22 10:35:52;;;;;;;15.03;7.90;;;;;;;6.35;nan;-23994.06;5027977;28;20190;-72
2022/12/22 10:38:27;;;;;;;13.40;7.87;;;;;;;6.21;nan;-23990.38;5028156;28;20180;-74
2022/12/22 10:40:57;;;;;;;17.43;8.30;;;;;;;6.59;nan;-24001.03;5028032;28;20547;-73
2022/12/22 10:43:29;;;;;;;14.40;7.57;;;;;;;6.55;nan;-23999.91;5028220;28;20226;-74
2022/12/22 10:45:57;;;;;;;16.23;9.33;;;;;;;6.70;nan;-24003.88;5028147;28;20170;-72
2022/12/22 10:48:33;;;;;;;14.13;8.07;;;;;;;6.50;nan;-23998.47;5027822;28;20160;-73
2022/12/22 10:50:59;;;;;;;20.13;8.60;;;;;;;7.10;nan;-24015.22;5027427;28;20178;-73
2022/12/22 10:53:45;;;;;;;11.47;7.60;;;;;;;7.03;nan;-24013.22;5027710;28;20199;-73
2022/12/22 10:56:28;;;;;;;13.50;7.03;;;;;;;7.00;nan;-24012.53;5028289;28;20179;-72
2022/12/22 10:59:03;;;;;;;13.93;7.93;;;;;;;6.62;nan;-24001.75;5031113;28;20190;-72
2022/12/22 11:01:32;;;;;;;16.33;8.40;;;;;;;6.96;nan;-24011.38;5011172;28;20184;-74
2022/12/22 11:04:14;;;;;;;12.97;7.23;;;;;;;6.67;nan;-24003.16;5027506;28;20230;-73
2022/12/22 11:06:42;;;;;;;13.50;8.03;;;;;;;6.76;nan;-24005.56;5027982;28;20188;-74
2022/12/22 11:09:09;;;;;;;19.13;8.50;;;;;;;7.05;nan;-24013.94;5028070;28;20176;-73
2022/12/22 11:11:38;;;;;;;14.97;8.30;;;;;;;6.94;nan;-24010.69;5028132;28;20183;-74
2022/12/22 11:14:18;;;;;;;17.50;9.00;;;;;;;6.74;nan;-24005.16;5027575;28;20258;-72
2022/12/22 11:17:12;;;;;;;16.17;8.30;;;;;;;6.77;nan;-24005.84;5014495;28;20167;-72
2022/12/22 11:19:55;;;;;;;16.47;8.70;;;;;;;6.62;nan;-24001.75;5014052;28;20199;-72
2022/12/22 11:22:36;;;;;;;17.83;9.77;;;;;;;6.27;nan;-23991.94;5014865;28;20559;-72
2022/12/22 11:25:21;;;;;;;18.57;8.83;;;;;;;6.70;nan;-24004.00;5014567;28;20186;-73
2022/12/22 11:28:08;;;;;;;15.70;9.07;;;;;;;6.90;nan;-24009.53;5014711;28;20179;-73
2022/12/22 11:30:57;;;;;;;18.83;10.10;;;;;;;6.92;nan;-24010.25;5014020;28;20164;-72
2022/12/22 11:33:26;;;;;;;16.97;9.27;;;;;;;6.76;nan;-24005.72;5014618;28;20506;-72
2022/12/22 11:36:03;;;;;;;21.87;10.30;;;;;;;6.69;nan;-24003.72;5014673;28;20269;-73
2022/12/22 11:38:56;;;;;;;17.63;9.67;;;;;;;6.84;nan;-24007.84;5013709;28;20164;-75
2022/12/22 11:42:02;;;;;;;16.77;8.90;;;;;;;6.73;nan;-24004.88;5013791;28;20194;-73
2022/12/22 11:45:01;;;;;;;19.83;9.17;;;;;;;6.74;nan;-24005.00;5012507;28;20187;-73
2022/12/22 11:47:36;;;;;;;19.43;10.47;;;;;;;6.88;nan;-24009.13;5013842;28;20191;-73
2022/12/22 11:50:19;;;;;;;19.47;9.57;;;;;;;6.83;nan;-24007.56;5014265;28;20273;-75
2022/12/22 11:53:03;;;;;;;23.10;9.10;;;;;;;7.05;nan;-24013.94;5013930;28;20168;-76
2022/12/22 11:55:39;;;;;;;22.90;9.60;;;;;;;6.85;nan;-24008.25;5012591;28;20635;-73
2022/12/22 11:58:16;;;;;;;18.23;9.63;;;;;;;7.42;nan;-24024.16;5013901;28;20159;-72
2022/12/22 12:00:50;;;;;;;20.57;10.30;;;;;;;6.96;nan;-24011.25;5013943;28;20631;-73
2022/12/22 12:03:34;;;;;;;21.50;9.23;;;;;;;7.07;nan;-24014.50;5013719;28;20236;-73
2022/12/22 12:06:05;;;;;;;17.40;9.70;;;;;;;7.22;nan;-24018.63;5014060;28;20183;-73
2022/12/22 12:08:56;;;;;;;20.90;8.90;;;;;;;7.18;nan;-24017.34;5013765;28;20168;-72
2022/12/22 12:11:49;;;;;;;14.73;8.27;;;;;;;7.12;nan;-24015.66;5013807;28;20172;-73
2022/12/22 12:14:40;;;;;;;13.30;8.47;;;;;;;7.20;nan;-24017.91;5013412;28;20277;-73
2022/12/22 12:17:31;;;;;;;13.73;8.13;;;;;;;7.07;nan;-24014.50;5013958;28;20206;-73
2022/12/22 12:20:25;;;;;;;13.40;6.60;;;;;;;7.17;nan;-24017.06;5013624;28;20172;-73
2022/12/22 12:22:57;;;;;;;12.93;6.70;;;;;;;7.08;nan;-24014.78;5036166;28;20648;-74
2022/12/22 12:25:26;;;;;;;13.93;7.63;;;;;;;7.10;nan;-24015.22;5013357;28;20168;-73
2022/12/22 12:27:55;;;;;;;12.27;6.13;;;;;;;7.27;nan;-24019.91;5012518;28;20334;-73
2022/12/22 12:30:21;;;;;;;11.10;5.73;;;;;;;7.14;nan;-24016.22;5013082;28;20172;-73
2022/12/22 12:33:02;;;;;;;14.47;7.30;;;;;;;7.09;nan;-24015.06;5012466;28;20180;-74
2022/12/22 12:35:49;;;;;;;15.30;7.00;;;;;;;7.15;nan;-24016.50;5012854;28;20176;-73
2022/12/22 12:38:39;;;;;;;15.87;7.83;;;;;;;7.08;nan;-24014.78;5012898;28;20168;-74
2022/12/22 12:41:13;;;;;;;16.60;6.53;;;;;;;7.21;nan;-24018.19;5012853;28;20180;-73
2022/12/22 12:43:40;;;;;;;13.73;6.20;;;;;;;7.05;nan;-24013.94;5012498;28;20196;-73
2022/12/22 12:46:43;;;;;;;14.83;6.47;;;;;;;6.88;nan;-24008.97;5012787;28;20164;-72
2022/12/22 12:49:33;;;;;;;12.70;6.30;;;;;;;7.03;nan;-24013.38;5011343;28;20258;-72
2022/12/22 12:52:01;;;;;;;10.53;5.77;;;;;;;7.09;nan;-24015.06;5012885;28;20176;-74
2022/12/22 12:54:29;;;;;;;9.17;5.53;;;;;;;7.19;nan;-24017.78;5012922;28;20199;-73
2022/12/22 12:56:59;;;;;;;12.03;7.10;;;;;;;7.19;nan;-24017.78;5013102;28;20670;-74
2022/12/22 12:59:45;;;;;;;12.53;7.17;;;;;;;7.23;nan;-24018.75;5011291;28;20203;-74
2022/12/22 13:02:26;;;;;;;8.30;5.77;;;;;;;7.39;nan;-24023.31;5011382;28;20222;-73
2022/12/22 13:05:06;;;;;;;10.80;6.13;;;;;;;7.06;nan;-24014.09;5012407;28;20236;-75
2022/12/22 13:08:08;;;;;;;15.90;6.97;;;;;;;7.02;nan;-24013.09;5012264;28;20161;-74
2022/12/22 13:10:54;;;;;;;12.77;7.00;;;;;;;7.06;nan;-24014.09;5012111;28;20241;-74
2022/12/22 13:13:22;;;;;;;12.67;7.07;;;;;;;7.09;nan;-24015.06;5011135;28;20678;-73
2022/12/22 13:15:48;;;;;;;8.80;5.20;;;;;;;7.05;nan;-24013.94;5012107;28;20172;-74
2022/12/22 13:18:28;;;;;;;15.17;7.10;;;;;;;6.93;nan;-24010.53;5012312;28;20172;-74
2022/12/22 13:21:24;;;;;;;12.57;6.37;;;;;;;6.77;nan;-24006.00;5012368;28;20180;-74
2022/12/22 13:24:12;;;;;;;12.17;6.80;;;;;;;6.88;nan;-24009.13;5011613;28;20206;-74
2022/12/22 13:26:40;;;;;;;10.33;5.80;;;;;;;6.67;nan;-24003.16;5011614;28;20247;-74
2022/12/22 13:29:21;;;;;;;13.40;6.27;;;;;;;6.68;nan;-24003.44;5011231;28;20172;-73
2022/12/22 13:31:53;;;;;;;9.87;5.63;;;;;;;6.37;nan;-23994.66;5012389;28;20176;-74
2022/12/22 13:34:21;;;;;;;7.67;5.30;;;;;;;6.82;nan;-24007.41;5011288;28;20586;-75
2022/12/22 13:36:48;;;;;;;11.27;6.80;;;;;;;6.31;nan;-23993.09;5012447;28;20186;-73
2022/12/22 13:39:14;;;;;;;16.93;6.73;;;;;;;6.10;nan;-23987.25;5011793;28;20547;-72
2022/12/22 13:41:43;;;;;;;9.87;5.87;;;;;;;6.75;nan;-24005.28;5011888;28;20180;-73
2022/12/22 13:44:28;;;;;;;13.23;6.40;;;;;;;6.90;nan;-24009.69;5010618;28;20283;-73
2022/12/22 13:47:01;;;;;;;16.43;6.67;;;;;;;6.88;nan;-24009.13;5014187;28;20662;-74
2022/12/22 13:49:28;;;;;;;12.90;7.20;;;;;;;6.84;nan;-24007.84;5012058;28;20267;-71
2022/12/22 13:51:53;;;;;;;9.93;6.10;;;;;;;6.62;nan;-24001.88;5012213;28;20226;-71
2022/12/22 13:54:31;;;;;;;11.67;6.43;;;;;;;6.79;nan;-24006.44;5014408;28;20683;-73
2022/12/22 13:56:58;;;;;;;14.13;5.77;;;;;;;6.68;nan;-24003.31;5012764;28;20542;-74
2022/12/22 13:59:29;;;;;;;9.33;5.97;;;;;;;6.16;nan;-23988.97;5016771;28;20663;-73
2022/12/22 14:02:12;;;;;;;10.77;6.67;;;;;;;6.35;nan;-23994.06;5016873;28;20180;-72
2022/12/22 14:04:40;;;;;;;13.20;6.57;;;;;;;6.29;nan;-23992.38;5011077;28;20223;-73
2022/12/22 14:07:18;;;;;;;9.27;5.33;;;;;;;6.57;nan;-24000.47;5011713;28;20176;-74
2022/12/22 14:09:45;;;;;;;8.03;6.23;;;;;;;6.29;nan;-23992.38;5011871;28;20528;-73
2022/12/22 14:12:14;;;;;;;8.23;5.23;;;;;;;6.65;nan;-24002.59;5011930;28;20171;-74
2022/12/22 14:14:43;;;;;;;8.90;6.10;;;;;;;6.20;nan;-23990.09;5011785;28;20687;-74
2022/12/22 14:17:28;;;;;;;8.83;5.77;;;;;;;6.24;nan;-23990.94;5010825;28;20191;-74
2022/12/22 14:19:57;;;;;;;14.73;6.47;;;;;;;6.13;nan;-23987.97;5010291;28;20171;-73
2022/12/22 14:22:44;;;;;;;12.70;5.90;;;;;;;6.22;nan;-23990.53;5011481;28;20180;-72
2022/12/22 14:25:16;;;;;;;10.80;6.20;;;;;;;5.75;nan;-23977.31;5011518;28;20245;-72
2022/12/22 14:27:46;;;;;;;14.13;6.57;;;;;;;5.96;nan;-23983.13;5012119;28;20182;-72
2022/12/22 14:30:15;;;;;;;14.83;6.50;;;;;;;5.91;nan;-23981.88;5011399;28;20175;-72
2022/12/22 14:32:50;;;;;;;10.23;5.97;;;;;;;6.13;nan;-23988.13;5011097;28;20234;-73
2022/12/22 14:35:24;;;;;;;9.37;6.03;;;;;;;6.24;nan;-23990.94;5011302;28;20262;-73
2022/12/22 14:37:51;;;;;;;8.50;5.80;;;;;;;6.17;nan;-23989.25;5011469;28;20167;-71
2022/12/22 14:40:30;;;;;;;11.00;5.53;;;;;;;5.94;nan;-23982.56;5012326;28;20599;-73
2022/12/22 14:42:58;;;;;;;11.47;6.97;;;;;;;5.98;nan;-23983.84;5011729;28;20182;-73
2022/12/22 14:45:23;;;;;;;12.30;6.63;;;;;;;5.96;nan;-23983.28;5011286;28;20172;-73
2022/12/22 14:47:50;;;;;;;13.10;6.23;;;;;;;5.72;nan;-23976.47;5011273;28;20180;-71
2022/12/22 14:50:16;;;;;;;14.57;6.37;;;;;;;5.89;nan;-23981.16;5011001;28;20628;-73
2022/12/22 14:52:50;;;;;;;17.80;6.93;;;;;;;5.40;nan;-23967.38;5014646;28;20172;-73
2022/12/22 14:55:38;;;;;;;10.90;5.83;;;;;;;4.99;nan;-23955.84;5018035;28;20191;-73
2022/12/22 14:58:09;;;;;;;12.07;6.23;;;;;;;5.41;nan;-23967.66;5008174;28;20597;-71
2022/12/22 15:00:38;;;;;;;11.70;7.07;;;;;;;5.14;nan;-23960.25;5016505;28;20187;-72
2022/12/22 15:03:23;;;;;;;12.07;6.30;;;;;;;5.22;nan;-23962.53;5013985;28;20714;-72
2022/12/22 15:05:49;;;;;;;9.80;6.43;;;;;;;5.09;nan;-23958.69;5013855;28;20235;-72
2022/12/22 15:08:39;;;;;;;13.67;7.37;;;;;;;4.98;nan;-23955.56;5014383;28;20242;-73
2022/12/22 15:11:13;;;;;;;11.00;7.33;;;;;;;4.67;nan;-23946.88;4993388;28;20656;-73
2022/12/22 15:13:39;;;;;;;14.17;8.00;;;;;;;4.69;nan;-23947.44;4995035;28;20628;-72
2022/12/22 15:16:04;;;;;;;17.63;7.93;;;;;;;4.74;nan;-23949.00;4995113;28;20192;-73
2022/12/22 15:18:31;;;;;;;18.00;9.40;;;;;;;4.32;nan;-23937.06;4995261;28;20175;-72
2022/12/22 15:20:57;;;;;;;19.30;10.30;;;;;;;4.60;nan;-23944.88;4995171;28;20189;-72
2022/12/22 15:23:23;;;;;;;19.37;10.90;;;;;;;4.29;nan;-23936.19;4995080;28;20284;-73
2022/12/22 15:25:48;;;;;;;18.77;11.63;;;;;;;3.97;nan;-23927.22;4994728;28;20169;-72
2022/12/22 15:28:14;;;;;;;22.73;12.20;;;;;;;4.20;nan;-23933.63;4995386;28;20191;-71
2022/12/22 15:30:40;;;;;;;26.60;12.10;;;;;;;4.03;nan;-23928.78;4993770;28;20686;-73
2022/12/22 15:33:12;;;;;;;18.17;10.87;;;;;;;4.07;nan;-23930.06;4994418;28;20169;-72
2022/12/22 15:35:37;;;;;;;20.20;11.33;;;;;;;4.11;nan;-23931.06;4994662;28;20545;-72
2022/12/22 15:38:10;;;;;;;18.13;10.47;;;;;;;4.00;nan;-23928.09;4994804;28;20283;-77
2022/12/22 15:40:36;;;;;;;18.97;9.80;;;;;;;4.13;nan;-23931.66;4995182;28;20200;-71
2022/12/22 15:43:01;;;;;;;12.23;8.70;;;;;;;3.60;nan;-23916.69;4994677;28;20643;-73